sensor_id;sensor_type;location;lat;lon;timestamp;P1;durP1;ratioP1;P2;durP2;ratioP2
76204;SDS011;64986;55.672;37.628;2023-09-19T00:02:16;15.60;;;9.73;;
76204;SDS011;64986;55.672;37.628;2023-09-19T00:04:41;13.93;;;9.43;;
76204;SDS011;64986;55.672;37.628;2023-09-19T00:07:08;19.63;;;9.02;;
76204;SDS011;64986;55.672;37.628;2023-09-19T00:09:34;15.75;;;9.25;;
76204;SDS011;64986;55.672;37.628;2023-09-19T00:12:03;15.20;;;9.52;;
76204;SDS011;64986;55.672;37.628;2023-09-19T00:14:30;17.00;;;9.73;;
76204;SDS011;64986;55.672;37.628;2023-09-19T00:16:55;18.15;;;9.55;;
76204;SDS011;64986;55.672;37.628;2023-09-19T00:19:20;16.58;;;10.15;;
76204;SDS011;64986;55.672;37.628;2023-09-19T00:21:46;18.70;;;11.55;;
76204;SDS011;64986;55.672;37.628;2023-09-19T00:24:12;18.90;;;11.40;;
76204;SDS011;64986;55.672;37.628;2023-09-19T00:26:38;18.60;;;12.10;;
76204;SDS011;64986;55.672;37.628;2023-09-19T00:29:04;20.73;;;13.30;;
76204;SDS011;64986;55.672;37.628;2023-09-19T00:31:29;22.77;;;13.02;;
76204;SDS011;64986;55.672;37.628;2023-09-19T00:33:55;24.45;;;14.98;;
76204;SDS011;64986;55.672;37.628;2023-09-19T00:36:22;20.40;;;14.00;;
76204;SDS011;64986;55.672;37.628;2023-09-19T00:38:48;20.90;;;15.32;;
76204;SDS011;64986;55.672;37.628;2023-09-19T00:41:13;21.20;;;13.20;;
76204;SDS011;64986;55.672;37.628;2023-09-19T00:43:38;19.85;;;13.98;;
76204;SDS011;64986;55.672;37.628;2023-09-19T00:46:05;24.27;;;16.77;;
76204;SDS011;64986;55.672;37.628;2023-09-19T00:48:31;29.70;;;20.08;;
76204;SDS011;64986;55.672;37.628;2023-09-19T00:51:02;29.63;;;19.00;;
76204;SDS011;64986;55.672;37.628;2023-09-19T00:53:27;29.60;;;21.63;;
76204;SDS011;64986;55.672;37.628;2023-09-19T00:55:53;34.60;;;21.27;;
76204;SDS011;64986;55.672;37.628;2023-09-19T00:58:19;26.98;;;20.50;;
76204;SDS011;64986;55.672;37.628;2023-09-19T01:00:44;26.73;;;20.00;;
76204;SDS011;64986;55.672;37.628;2023-09-19T01:03:10;28.48;;;21.52;;
76204;SDS011;64986;55.672;37.628;2023-09-19T01:05:35;32.08;;;22.70;;
76204;SDS011;64986;55.672;37.628;2023-09-19T01:08:01;30.83;;;23.42;;
76204;SDS011;64986;55.672;37.628;2023-09-19T01:10:26;32.45;;;23.60;;
76204;SDS011;64986;55.672;37.628;2023-09-19T01:12:59;33.95;;;22.65;;
76204;SDS011;64986;55.672;37.628;2023-09-19T01:20:50;34.97;;;25.45;;
76204;SDS011;64986;55.672;37.628;2023-09-19T01:23:23;35.58;;;25.60;;
76204;SDS011;64986;55.672;37.628;2023-09-19T01:28:43;36.67;;;26.75;;
76204;SDS011;64986;55.672;37.628;2023-09-19T01:31:12;33.92;;;24.48;;
76204;SDS011;64986;55.672;37.628;2023-09-19T01:33:54;38.10;;;26.45;;
76204;SDS011;64986;55.672;37.628;2023-09-19T01:36:22;36.08;;;24.20;;
76204;SDS011;64986;55.672;37.628;2023-09-19T01:38:49;28.85;;;21.60;;
76204;SDS011;64986;55.672;37.628;2023-09-19T01:41:14;29.25;;;20.70;;
76204;SDS011;64986;55.672;37.628;2023-09-19T01:43:44;27.50;;;20.13;;
76204;SDS011;64986;55.672;37.628;2023-09-19T01:49:18;28.00;;;20.60;;
76204;SDS011;64986;55.672;37.628;2023-09-19T01:54:33;27.15;;;18.52;;
76204;SDS011;64986;55.672;37.628;2023-09-19T01:57:06;27.13;;;18.73;;
76204;SDS011;64986;55.672;37.628;2023-09-19T01:59:36;28.50;;;19.77;;
76204;SDS011;64986;55.672;37.628;2023-09-19T02:02:03;26.25;;;18.52;;
76204;SDS011;64986;55.672;37.628;2023-09-19T02:04:31;24.50;;;18.50;;
76204;SDS011;64986;55.672;37.628;2023-09-19T02:06:57;25.02;;;17.88;;
76204;SDS011;64986;55.672;37.628;2023-09-19T02:09:23;22.90;;;17.50;;
76204;SDS011;64986;55.672;37.628;2023-09-19T02:11:48;24.90;;;17.30;;
76204;SDS011;64986;55.672;37.628;2023-09-19T02:14:14;26.38;;;18.27;;
76204;SDS011;64986;55.672;37.628;2023-09-19T02:16:40;22.75;;;15.20;;
76204;SDS011;64986;55.672;37.628;2023-09-19T02:19:05;23.73;;;17.52;;
76204;SDS011;64986;55.672;37.628;2023-09-19T02:21:31;24.90;;;17.52;;
76204;SDS011;64986;55.672;37.628;2023-09-19T02:23:57;22.20;;;16.15;;
76204;SDS011;64986;55.672;37.628;2023-09-19T02:26:24;26.63;;;18.10;;
76204;SDS011;64986;55.672;37.628;2023-09-19T02:28:49;24.80;;;16.05;;
76204;SDS011;64986;55.672;37.628;2023-09-19T02:31:15;23.02;;;15.90;;
76204;SDS011;64986;55.672;37.628;2023-09-19T02:33:41;25.42;;;17.23;;
76204;SDS011;64986;55.672;37.628;2023-09-19T02:36:07;23.85;;;16.55;;
76204;SDS011;64986;55.672;37.628;2023-09-19T02:38:33;26.80;;;16.15;;
76204;SDS011;64986;55.672;37.628;2023-09-19T02:40:59;24.13;;;15.20;;
76204;SDS011;64986;55.672;37.628;2023-09-19T02:43:25;30.23;;;17.63;;
76204;SDS011;64986;55.672;37.628;2023-09-19T02:45:50;21.92;;;14.93;;
76204;SDS011;64986;55.672;37.628;2023-09-19T02:48:18;23.02;;;15.98;;
76204;SDS011;64986;55.672;37.628;2023-09-19T02:50:44;21.58;;;14.30;;
76204;SDS011;64986;55.672;37.628;2023-09-19T02:53:10;23.17;;;16.55;;
76204;SDS011;64986;55.672;37.628;2023-09-19T02:55:37;23.77;;;15.10;;
76204;SDS011;64986;55.672;37.628;2023-09-19T02:58:05;21.00;;;13.93;;
76204;SDS011;64986;55.672;37.628;2023-09-19T03:00:33;23.10;;;16.10;;
76204;SDS011;64986;55.672;37.628;2023-09-19T03:03:01;20.85;;;15.45;;
76204;SDS011;64986;55.672;37.628;2023-09-19T03:05:27;21.02;;;15.98;;
76204;SDS011;64986;55.672;37.628;2023-09-19T03:07:56;25.20;;;16.08;;
76204;SDS011;64986;55.672;37.628;2023-09-19T03:10:21;21.42;;;15.43;;
76204;SDS011;64986;55.672;37.628;2023-09-19T03:12:48;28.55;;;16.73;;
76204;SDS011;64986;55.672;37.628;2023-09-19T03:15:15;23.55;;;15.32;;
76204;SDS011;64986;55.672;37.628;2023-09-19T03:17:43;18.38;;;13.07;;
76204;SDS011;64986;55.672;37.628;2023-09-19T03:20:10;23.48;;;16.48;;
76204;SDS011;64986;55.672;37.628;2023-09-19T03:22:38;25.80;;;15.45;;
76204;SDS011;64986;55.672;37.628;2023-09-19T03:25:04;23.27;;;15.77;;
76204;SDS011;64986;55.672;37.628;2023-09-19T03:27:33;26.17;;;16.70;;
76204;SDS011;64986;55.672;37.628;2023-09-19T03:29:59;26.35;;;17.83;;
76204;SDS011;64986;55.672;37.628;2023-09-19T03:32:25;28.88;;;18.33;;
76204;SDS011;64986;55.672;37.628;2023-09-19T03:34:51;25.10;;;17.17;;
76204;SDS011;64986;55.672;37.628;2023-09-19T03:37:16;27.92;;;18.15;;
76204;SDS011;64986;55.672;37.628;2023-09-19T03:39:42;25.25;;;17.38;;
76204;SDS011;64986;55.672;37.628;2023-09-19T03:42:07;24.05;;;17.85;;
76204;SDS011;64986;55.672;37.628;2023-09-19T03:44:33;24.70;;;18.40;;
76204;SDS011;64986;55.672;37.628;2023-09-19T03:46:58;27.77;;;18.08;;
76204;SDS011;64986;55.672;37.628;2023-09-19T03:49:24;26.13;;;18.17;;
76204;SDS011;64986;55.672;37.628;2023-09-19T03:51:49;27.85;;;19.27;;
76204;SDS011;64986;55.672;37.628;2023-09-19T03:54:15;30.58;;;19.77;;
76204;SDS011;64986;55.672;37.628;2023-09-19T03:56:42;28.25;;;19.20;;
76204;SDS011;64986;55.672;37.628;2023-09-19T03:59:08;29.42;;;19.27;;
76204;SDS011;64986;55.672;37.628;2023-09-19T04:01:34;33.45;;;19.65;;
76204;SDS011;64986;55.672;37.628;2023-09-19T04:04:00;30.17;;;18.80;;
76204;SDS011;64986;55.672;37.628;2023-09-19T04:06:33;29.85;;;19.83;;
76204;SDS011;64986;55.672;37.628;2023-09-19T04:09:00;25.67;;;18.85;;
76204;SDS011;64986;55.672;37.628;2023-09-19T04:11:26;29.65;;;20.85;;
76204;SDS011;64986;55.672;37.628;2023-09-19T04:13:52;30.95;;;21.55;;
76204;SDS011;64986;55.672;37.628;2023-09-19T04:16:18;35.85;;;21.85;;
76204;SDS011;64986;55.672;37.628;2023-09-19T04:18:43;32.72;;;21.75;;
76204;SDS011;64986;55.672;37.628;2023-09-19T04:21:09;32.45;;;22.05;;
76204;SDS011;64986;55.672;37.628;2023-09-19T04:23:35;34.65;;;21.80;;
76204;SDS011;64986;55.672;37.628;2023-09-19T04:26:00;28.90;;;19.58;;
76204;SDS011;64986;55.672;37.628;2023-09-19T04:28:26;28.98;;;18.60;;
76204;SDS011;64986;55.672;37.628;2023-09-19T04:30:53;25.63;;;17.80;;
76204;SDS011;64986;55.672;37.628;2023-09-19T04:33:20;23.98;;;16.60;;
76204;SDS011;64986;55.672;37.628;2023-09-19T04:35:48;28.08;;;17.55;;
76204;SDS011;64986;55.672;37.628;2023-09-19T04:38:17;27.23;;;17.70;;
76204;SDS011;64986;55.672;37.628;2023-09-19T04:40:44;22.23;;;16.35;;
76204;SDS011;64986;55.672;37.628;2023-09-19T04:43:10;26.83;;;17.88;;
76204;SDS011;64986;55.672;37.628;2023-09-19T04:45:35;28.55;;;17.25;;
76204;SDS011;64986;55.672;37.628;2023-09-19T04:48:03;24.48;;;16.33;;
76204;SDS011;64986;55.672;37.628;2023-09-19T04:50:29;21.88;;;15.98;;
76204;SDS011;64986;55.672;37.628;2023-09-19T04:52:55;22.52;;;15.95;;
76204;SDS011;64986;55.672;37.628;2023-09-19T04:55:20;24.55;;;15.98;;
76204;SDS011;64986;55.672;37.628;2023-09-19T04:57:46;20.73;;;14.07;;
76204;SDS011;64986;55.672;37.628;2023-09-19T05:00:14;20.70;;;13.82;;
76204;SDS011;64986;55.672;37.628;2023-09-19T05:02:42;20.60;;;13.30;;
76204;SDS011;64986;55.672;37.628;2023-09-19T05:05:08;18.10;;;14.07;;
76204;SDS011;64986;55.672;37.628;2023-09-19T05:07:40;21.42;;;12.75;;
76204;SDS011;64986;55.672;37.628;2023-09-19T05:10:06;20.83;;;12.50;;
76204;SDS011;64986;55.672;37.628;2023-09-19T05:12:35;14.43;;;11.50;;
76204;SDS011;64986;55.672;37.628;2023-09-19T05:15:01;18.63;;;12.27;;
76204;SDS011;64986;55.672;37.628;2023-09-19T05:17:32;16.15;;;11.55;;
76204;SDS011;64986;55.672;37.628;2023-09-19T05:20:01;18.98;;;11.73;;
76204;SDS011;64986;55.672;37.628;2023-09-19T05:22:31;15.48;;;11.18;;
76204;SDS011;64986;55.672;37.628;2023-09-19T05:24:57;17.48;;;11.18;;
76204;SDS011;64986;55.672;37.628;2023-09-19T05:27:23;15.30;;;9.60;;
76204;SDS011;64986;55.672;37.628;2023-09-19T05:29:49;16.02;;;11.23;;
76204;SDS011;64986;55.672;37.628;2023-09-19T05:32:17;15.77;;;11.15;;
76204;SDS011;64986;55.672;37.628;2023-09-19T05:34:45;15.32;;;10.13;;
76204;SDS011;64986;55.672;37.628;2023-09-19T05:37:12;19.13;;;11.05;;
76204;SDS011;64986;55.672;37.628;2023-09-19T05:39:38;14.93;;;10.32;;
76204;SDS011;64986;55.672;37.628;2023-09-19T05:42:04;17.98;;;11.05;;
76204;SDS011;64986;55.672;37.628;2023-09-19T05:44:30;18.35;;;11.30;;
76204;SDS011;64986;55.672;37.628;2023-09-19T05:46:58;15.65;;;11.57;;
76204;SDS011;64986;55.672;37.628;2023-09-19T05:49:23;19.35;;;11.93;;
76204;SDS011;64986;55.672;37.628;2023-09-19T05:51:49;19.02;;;11.88;;
76204;SDS011;64986;55.672;37.628;2023-09-19T05:54:19;19.20;;;12.00;;
76204;SDS011;64986;55.672;37.628;2023-09-19T05:56:45;16.58;;;12.13;;
76204;SDS011;64986;55.672;37.628;2023-09-19T05:59:12;24.95;;;12.77;;
76204;SDS011;64986;55.672;37.628;2023-09-19T06:01:40;15.35;;;11.82;;
76204;SDS011;64986;55.672;37.628;2023-09-19T06:04:07;14.93;;;10.90;;
76204;SDS011;64986;55.672;37.628;2023-09-19T06:06:33;24.38;;;12.50;;
76204;SDS011;64986;55.672;37.628;2023-09-19T06:09:05;20.67;;;12.73;;
76204;SDS011;64986;55.672;37.628;2023-09-19T06:11:34;19.13;;;14.25;;
76204;SDS011;64986;55.672;37.628;2023-09-19T06:14:02;21.65;;;13.32;;
76204;SDS011;64986;55.672;37.628;2023-09-19T06:16:29;17.60;;;12.05;;
76204;SDS011;64986;55.672;37.628;2023-09-19T06:18:55;18.30;;;11.77;;
76204;SDS011;64986;55.672;37.628;2023-09-19T06:21:24;19.95;;;12.57;;
76204;SDS011;64986;55.672;37.628;2023-09-19T06:23:51;26.55;;;13.02;;
76204;SDS011;64986;55.672;37.628;2023-09-19T06:26:17;19.17;;;11.85;;
76204;SDS011;64986;55.672;37.628;2023-09-19T06:28:43;15.93;;;12.00;;
76204;SDS011;64986;55.672;37.628;2023-09-19T06:31:09;16.58;;;11.10;;
76204;SDS011;64986;55.672;37.628;2023-09-19T06:33:37;16.85;;;11.43;;
76204;SDS011;64986;55.672;37.628;2023-09-19T06:36:04;16.73;;;12.32;;
76204;SDS011;64986;55.672;37.628;2023-09-19T06:38:30;17.23;;;11.38;;
76204;SDS011;64986;55.672;37.628;2023-09-19T06:40:58;19.92;;;10.30;;
76204;SDS011;64986;55.672;37.628;2023-09-19T06:43:24;14.88;;;10.82;;
76204;SDS011;64986;55.672;37.628;2023-09-19T06:45:49;15.50;;;11.18;;
76204;SDS011;64986;55.672;37.628;2023-09-19T06:48:16;14.23;;;9.95;;
76204;SDS011;64986;55.672;37.628;2023-09-19T06:50:44;15.43;;;11.25;;
76204;SDS011;64986;55.672;37.628;2023-09-19T06:53:09;14.30;;;10.63;;
76204;SDS011;64986;55.672;37.628;2023-09-19T06:55:35;18.40;;;11.38;;
76204;SDS011;64986;55.672;37.628;2023-09-19T06:58:01;12.65;;;9.80;;
76204;SDS011;64986;55.672;37.628;2023-09-19T07:00:27;18.85;;;11.98;;
76204;SDS011;64986;55.672;37.628;2023-09-19T07:03:03;16.33;;;11.90;;
76204;SDS011;64986;55.672;37.628;2023-09-19T07:05:38;15.02;;;9.88;;
76204;SDS011;64986;55.672;37.628;2023-09-19T07:08:05;19.10;;;12.02;;
76204;SDS011;64986;55.672;37.628;2023-09-19T07:10:37;15.95;;;11.35;;
76204;SDS011;64986;55.672;37.628;2023-09-19T07:13:06;14.05;;;10.15;;
76204;SDS011;64986;55.672;37.628;2023-09-19T07:15:36;16.05;;;11.90;;
76204;SDS011;64986;55.672;37.628;2023-09-19T07:18:11;18.13;;;11.73;;
76204;SDS011;64986;55.672;37.628;2023-09-19T07:20:41;19.10;;;11.55;;
76204;SDS011;64986;55.672;37.628;2023-09-19T07:23:23;16.63;;;11.88;;
76204;SDS011;64986;55.672;37.628;2023-09-19T07:25:49;19.27;;;11.60;;
76204;SDS011;64986;55.672;37.628;2023-09-19T07:28:15;14.40;;;10.85;;
76204;SDS011;64986;55.672;37.628;2023-09-19T07:30:41;16.27;;;12.73;;
76204;SDS011;64986;55.672;37.628;2023-09-19T07:33:06;19.00;;;12.38;;
76204;SDS011;64986;55.672;37.628;2023-09-19T07:35:32;17.80;;;12.10;;
76204;SDS011;64986;55.672;37.628;2023-09-19T07:37:58;18.75;;;11.57;;
76204;SDS011;64986;55.672;37.628;2023-09-19T07:40:29;15.68;;;11.98;;
76204;SDS011;64986;55.672;37.628;2023-09-19T07:42:55;16.42;;;10.32;;
76204;SDS011;64986;55.672;37.628;2023-09-19T07:45:21;16.70;;;11.55;;
76204;SDS011;64986;55.672;37.628;2023-09-19T07:47:47;24.17;;;13.45;;
76204;SDS011;64986;55.672;37.628;2023-09-19T07:50:14;18.65;;;13.40;;
76204;SDS011;64986;55.672;37.628;2023-09-19T07:52:41;14.93;;;11.43;;
76204;SDS011;64986;55.672;37.628;2023-09-19T07:55:08;16.02;;;11.20;;
76204;SDS011;64986;55.672;37.628;2023-09-19T07:57:37;17.88;;;12.20;;
76204;SDS011;64986;55.672;37.628;2023-09-19T08:00:03;17.55;;;12.10;;
76204;SDS011;64986;55.672;37.628;2023-09-19T08:02:35;19.05;;;12.23;;
76204;SDS011;64986;55.672;37.628;2023-09-19T08:05:03;19.50;;;13.45;;
76204;SDS011;64986;55.672;37.628;2023-09-19T08:07:35;15.85;;;12.18;;
76204;SDS011;64986;55.672;37.628;2023-09-19T08:10:04;20.17;;;12.27;;
76204;SDS011;64986;55.672;37.628;2023-09-19T08:12:38;17.55;;;12.02;;
76204;SDS011;64986;55.672;37.628;2023-09-19T08:15:11;20.05;;;12.65;;
76204;SDS011;64986;55.672;37.628;2023-09-19T08:20:11;14.77;;;10.57;;
76204;SDS011;64986;55.672;37.628;2023-09-19T08:22:47;14.55;;;11.02;;
76204;SDS011;64986;55.672;37.628;2023-09-19T08:25:25;25.73;;;11.13;;
76204;SDS011;64986;55.672;37.628;2023-09-19T08:27:51;15.52;;;10.45;;
76204;SDS011;64986;55.672;37.628;2023-09-19T08:30:18;16.10;;;10.90;;
76204;SDS011;64986;55.672;37.628;2023-09-19T08:32:49;15.90;;;11.38;;
76204;SDS011;64986;55.672;37.628;2023-09-19T08:35:24;16.08;;;10.10;;
76204;SDS011;64986;55.672;37.628;2023-09-19T08:37:49;15.60;;;10.75;;
76204;SDS011;64986;55.672;37.628;2023-09-19T08:40:16;13.68;;;11.00;;
76204;SDS011;64986;55.672;37.628;2023-09-19T08:45:18;16.42;;;11.05;;
76204;SDS011;64986;55.672;37.628;2023-09-19T08:50:49;14.93;;;11.55;;
76204;SDS011;64986;55.672;37.628;2023-09-19T08:53:25;17.00;;;12.05;;
76204;SDS011;64986;55.672;37.628;2023-09-19T08:55:57;15.93;;;11.13;;
76204;SDS011;64986;55.672;37.628;2023-09-19T08:58:27;14.77;;;12.00;;
76204;SDS011;64986;55.672;37.628;2023-09-19T09:01:00;16.85;;;11.70;;
76204;SDS011;64986;55.672;37.628;2023-09-19T09:03:26;14.13;;;11.70;;
76204;SDS011;64986;55.672;37.628;2023-09-19T09:06:00;16.33;;;11.90;;
76204;SDS011;64986;55.672;37.628;2023-09-19T09:08:26;16.63;;;12.48;;
76204;SDS011;64986;55.672;37.628;2023-09-19T09:10:53;14.38;;;12.07;;
76204;SDS011;64986;55.672;37.628;2023-09-19T09:13:19;16.83;;;12.18;;
76204;SDS011;64986;55.672;37.628;2023-09-19T09:15:47;24.85;;;14.32;;
76204;SDS011;64986;55.672;37.628;2023-09-19T09:18:13;18.70;;;13.70;;
76204;SDS011;64986;55.672;37.628;2023-09-19T09:20:38;20.52;;;12.95;;
76204;SDS011;64986;55.672;37.628;2023-09-19T09:23:04;24.48;;;14.88;;
76204;SDS011;64986;55.672;37.628;2023-09-19T09:26:04;18.27;;;11.07;;
76204;SDS011;64986;55.672;37.628;2023-09-19T09:28:27;20.17;;;12.40;;
76204;SDS011;64986;55.672;37.628;2023-09-19T09:30:55;20.00;;;11.30;;
76204;SDS011;64986;55.672;37.628;2023-09-19T09:33:23;16.48;;;11.07;;
76204;SDS011;64986;55.672;37.628;2023-09-19T09:35:59;12.77;;;10.02;;
76204;SDS011;64986;55.672;37.628;2023-09-19T09:38:29;17.05;;;10.88;;
76204;SDS011;64986;55.672;37.628;2023-09-19T09:41:08;15.20;;;11.25;;
76204;SDS011;64986;55.672;37.628;2023-09-19T09:43:38;18.73;;;10.55;;
76204;SDS011;64986;55.672;37.628;2023-09-19T09:46:13;20.05;;;11.77;;
76204;SDS011;64986;55.672;37.628;2023-09-19T09:48:46;13.88;;;10.80;;
76204;SDS011;64986;55.672;37.628;2023-09-19T09:51:45;15.88;;;11.15;;
76204;SDS011;64986;55.672;37.628;2023-09-19T09:54:22;15.85;;;11.80;;
76204;SDS011;64986;55.672;37.628;2023-09-19T09:56:52;14.40;;;10.23;;
76204;SDS011;64986;55.672;37.628;2023-09-19T10:02:15;15.63;;;10.90;;
76204;SDS011;64986;55.672;37.628;2023-09-19T10:04:48;14.68;;;10.00;;
76204;SDS011;64986;55.672;37.628;2023-09-19T10:07:28;14.38;;;10.35;;
76204;SDS011;64986;55.672;37.628;2023-09-19T10:10:01;12.60;;;10.00;;
76204;SDS011;64986;55.672;37.628;2023-09-19T10:12:51;17.45;;;10.25;;
76204;SDS011;64986;55.672;37.628;2023-09-19T10:15:27;13.63;;;10.52;;
76204;SDS011;64986;55.672;37.628;2023-09-19T10:17:58;14.52;;;10.25;;
76204;SDS011;64986;55.672;37.628;2023-09-19T10:20:26;19.48;;;10.52;;
76204;SDS011;64986;55.672;37.628;2023-09-19T10:23:03;23.52;;;10.07;;
76204;SDS011;64986;55.672;37.628;2023-09-19T10:25:34;12.70;;;8.80;;
76204;SDS011;64986;55.672;37.628;2023-09-19T10:28:02;11.20;;;9.18;;
76204;SDS011;64986;55.672;37.628;2023-09-19T10:30:36;10.90;;;7.65;;
76204;SDS011;64986;55.672;37.628;2023-09-19T10:33:04;14.68;;;10.20;;
76204;SDS011;64986;55.672;37.628;2023-09-19T10:35:31;11.80;;;8.15;;
76204;SDS011;64986;55.672;37.628;2023-09-19T10:38:01;11.02;;;8.05;;
76204;SDS011;64986;55.672;37.628;2023-09-19T10:40:29;11.50;;;8.68;;
76204;SDS011;64986;55.672;37.628;2023-09-19T10:43:01;11.98;;;9.18;;
76204;SDS011;64986;55.672;37.628;2023-09-19T10:45:32;13.50;;;8.18;;
76204;SDS011;64986;55.672;37.628;2023-09-19T10:48:03;14.25;;;8.70;;
76204;SDS011;64986;55.672;37.628;2023-09-19T10:50:31;14.13;;;9.68;;
76204;SDS011;64986;55.672;37.628;2023-09-19T10:53:02;10.25;;;8.18;;
76204;SDS011;64986;55.672;37.628;2023-09-19T10:55:33;10.93;;;8.68;;
76204;SDS011;64986;55.672;37.628;2023-09-19T10:58:00;12.00;;;8.55;;
76204;SDS011;64986;55.672;37.628;2023-09-19T11:00:30;11.57;;;7.85;;
76204;SDS011;64986;55.672;37.628;2023-09-19T11:05:40;8.80;;;6.72;;
76204;SDS011;64986;55.672;37.628;2023-09-19T11:08:10;10.88;;;8.85;;
76204;SDS011;64986;55.672;37.628;2023-09-19T11:10:44;9.50;;;7.10;;
76204;SDS011;64986;55.672;37.628;2023-09-19T11:13:29;11.30;;;7.77;;
76204;SDS011;64986;55.672;37.628;2023-09-19T11:16:03;19.17;;;9.18;;
76204;SDS011;64986;55.672;37.628;2023-09-19T11:24:29;12.68;;;8.45;;
76204;SDS011;64986;55.672;37.628;2023-09-19T11:27:14;11.93;;;8.05;;
76204;SDS011;64986;55.672;37.628;2023-09-19T11:29:42;12.40;;;8.25;;
76204;SDS011;64986;55.672;37.628;2023-09-19T11:32:08;12.13;;;8.10;;
76204;SDS011;64986;55.672;37.628;2023-09-19T11:34:38;11.55;;;8.18;;
76204;SDS011;64986;55.672;37.628;2023-09-19T11:40:14;9.73;;;7.53;;
76204;SDS011;64986;55.672;37.628;2023-09-19T11:42:45;13.45;;;9.02;;
76204;SDS011;64986;55.672;37.628;2023-09-19T11:48:12;11.15;;;7.63;;
76204;SDS011;64986;55.672;37.628;2023-09-19T11:50:43;14.13;;;9.02;;
76204;SDS011;64986;55.672;37.628;2023-09-19T11:53:12;11.32;;;8.20;;
76204;SDS011;64986;55.672;37.628;2023-09-19T11:55:39;14.05;;;7.47;;
76204;SDS011;64986;55.672;37.628;2023-09-19T11:58:08;12.38;;;8.07;;
76204;SDS011;64986;55.672;37.628;2023-09-19T12:00:34;11.43;;;7.53;;
76204;SDS011;64986;55.672;37.628;2023-09-19T12:03:07;11.63;;;6.80;;
76204;SDS011;64986;55.672;37.628;2023-09-19T12:05:35;9.45;;;7.32;;
76204;SDS011;64986;55.672;37.628;2023-09-19T12:08:02;10.60;;;7.72;;
76204;SDS011;64986;55.672;37.628;2023-09-19T12:10:29;12.05;;;8.23;;
76204;SDS011;64986;55.672;37.628;2023-09-19T12:12:54;10.35;;;7.93;;
76204;SDS011;64986;55.672;37.628;2023-09-19T12:15:25;12.52;;;7.35;;
76204;SDS011;64986;55.672;37.628;2023-09-19T12:17:59;10.73;;;7.28;;
76204;SDS011;64986;55.672;37.628;2023-09-19T12:20:25;8.70;;;7.20;;
76204;SDS011;64986;55.672;37.628;2023-09-19T12:22:50;13.75;;;6.93;;
76204;SDS011;64986;55.672;37.628;2023-09-19T12:25:16;11.95;;;7.68;;
76204;SDS011;64986;55.672;37.628;2023-09-19T12:27:49;9.35;;;6.95;;
76204;SDS011;64986;55.672;37.628;2023-09-19T12:30:19;7.82;;;6.60;;
76204;SDS011;64986;55.672;37.628;2023-09-19T12:32:46;9.68;;;7.35;;
76204;SDS011;64986;55.672;37.628;2023-09-19T12:35:27;9.18;;;7.70;;
76204;SDS011;64986;55.672;37.628;2023-09-19T12:37:55;12.73;;;6.38;;
76204;SDS011;64986;55.672;37.628;2023-09-19T12:40:22;13.48;;;7.65;;
76204;SDS011;64986;55.672;37.628;2023-09-19T12:42:52;8.57;;;7.10;;
76204;SDS011;64986;55.672;37.628;2023-09-19T12:45:20;9.77;;;7.32;;
76204;SDS011;64986;55.672;37.628;2023-09-19T12:53:36;11.90;;;9.13;;
76204;SDS011;64986;55.672;37.628;2023-09-19T12:56:05;7.60;;;6.60;;
76204;SDS011;64986;55.672;37.628;2023-09-19T12:58:32;8.52;;;6.63;;
76204;SDS011;64986;55.672;37.628;2023-09-19T13:00:58;9.13;;;5.97;;
76204;SDS011;64986;55.672;37.628;2023-09-19T13:03:25;10.80;;;6.55;;
76204;SDS011;64986;55.672;37.628;2023-09-19T13:08:27;8.25;;;6.93;;
76204;SDS011;64986;55.672;37.628;2023-09-19T13:13:44;11.15;;;7.85;;
76204;SDS011;64986;55.672;37.628;2023-09-19T13:16:14;11.25;;;7.93;;
76204;SDS011;64986;55.672;37.628;2023-09-19T13:18:45;16.25;;;7.15;;
76204;SDS011;64986;55.672;37.628;2023-09-19T13:21:12;8.02;;;6.28;;
76204;SDS011;64986;55.672;37.628;2023-09-19T13:24:01;13.48;;;6.65;;
76204;SDS011;64986;55.672;37.628;2023-09-19T13:26:46;6.55;;;5.85;;
76204;SDS011;64986;55.672;37.628;2023-09-19T13:29:11;8.38;;;6.32;;
76204;SDS011;64986;55.672;37.628;2023-09-19T13:31:38;8.57;;;6.25;;
76204;SDS011;64986;55.672;37.628;2023-09-19T13:34:06;9.55;;;6.00;;
76204;SDS011;64986;55.672;37.628;2023-09-19T13:36:32;8.88;;;6.55;;
76204;SDS011;64986;55.672;37.628;2023-09-19T13:38:58;9.70;;;7.28;;
76204;SDS011;64986;55.672;37.628;2023-09-19T13:41:25;11.32;;;6.57;;
76204;SDS011;64986;55.672;37.628;2023-09-19T13:43:51;7.13;;;5.82;;
76204;SDS011;64986;55.672;37.628;2023-09-19T13:46:17;11.77;;;7.32;;
76204;SDS011;64986;55.672;37.628;2023-09-19T13:48:50;14.52;;;7.38;;
76204;SDS011;64986;55.672;37.628;2023-09-19T13:51:17;10.10;;;7.22;;
76204;SDS011;64986;55.672;37.628;2023-09-19T13:53:44;8.02;;;6.30;;
76204;SDS011;64986;55.672;37.628;2023-09-19T13:56:09;10.00;;;7.28;;
76204;SDS011;64986;55.672;37.628;2023-09-19T13:58:36;11.75;;;7.50;;
76204;SDS011;64986;55.672;37.628;2023-09-19T14:01:01;16.70;;;8.57;;
76204;SDS011;64986;55.672;37.628;2023-09-19T14:03:28;12.20;;;8.50;;
76204;SDS011;64986;55.672;37.628;2023-09-19T14:05:53;12.32;;;8.52;;
76204;SDS011;64986;55.672;37.628;2023-09-19T14:08:19;13.68;;;8.27;;
76204;SDS011;64986;55.672;37.628;2023-09-19T14:10:45;10.05;;;8.10;;
76204;SDS011;64986;55.672;37.628;2023-09-19T14:13:11;11.07;;;7.85;;
76204;SDS011;64986;55.672;37.628;2023-09-19T14:15:38;11.85;;;7.55;;
76204;SDS011;64986;55.672;37.628;2023-09-19T14:18:04;15.25;;;8.10;;
76204;SDS011;64986;55.672;37.628;2023-09-19T14:20:30;14.38;;;8.07;;
76204;SDS011;64986;55.672;37.628;2023-09-19T14:22:56;15.45;;;7.28;;
76204;SDS011;64986;55.672;37.628;2023-09-19T14:25:23;12.85;;;7.30;;
76204;SDS011;64986;55.672;37.628;2023-09-19T14:27:50;14.18;;;7.97;;
76204;SDS011;64986;55.672;37.628;2023-09-19T14:30:18;15.60;;;7.50;;
76204;SDS011;64986;55.672;37.628;2023-09-19T14:32:44;12.60;;;7.72;;
76204;SDS011;64986;55.672;37.628;2023-09-19T14:35:15;8.07;;;6.65;;
76204;SDS011;64986;55.672;37.628;2023-09-19T14:37:43;13.63;;;7.70;;
76204;SDS011;64986;55.672;37.628;2023-09-19T14:40:10;17.50;;;7.60;;
76204;SDS011;64986;55.672;37.628;2023-09-19T14:42:38;10.65;;;7.47;;
76204;SDS011;64986;55.672;37.628;2023-09-19T14:45:04;13.73;;;7.15;;
76204;SDS011;64986;55.672;37.628;2023-09-19T14:47:31;13.25;;;8.88;;
76204;SDS011;64986;55.672;37.628;2023-09-19T14:49:59;13.77;;;8.10;;
76204;SDS011;64986;55.672;37.628;2023-09-19T14:52:32;22.90;;;8.93;;
76204;SDS011;64986;55.672;37.628;2023-09-19T14:54:59;15.30;;;7.82;;
76204;SDS011;64986;55.672;37.628;2023-09-19T14:57:26;11.73;;;7.43;;
76204;SDS011;64986;55.672;37.628;2023-09-19T14:59:52;12.35;;;7.22;;
76204;SDS011;64986;55.672;37.628;2023-09-19T15:02:17;9.35;;;7.18;;
76204;SDS011;64986;55.672;37.628;2023-09-19T15:04:43;11.73;;;7.03;;
76204;SDS011;64986;55.672;37.628;2023-09-19T15:07:09;10.23;;;7.38;;
76204;SDS011;64986;55.672;37.628;2023-09-19T15:09:35;12.32;;;7.60;;
76204;SDS011;64986;55.672;37.628;2023-09-19T15:12:01;11.10;;;7.50;;